Terminal Aerodrome Forecast
Issued by NWS

Home | Current Version | Previous Version | Text Only | Print | Product List | Glossary Off
Versions: 1 2 3 4 5 6 7 8 9 10 11 12 13 14 15 16 17 18 19 20

000
FTUS43 KOAX 200107 AAA
TAFCDR
TAF AMD
KCDR 200107Z 2001/2024 07007KT 1SM -SN SCT007 BKN012
     FM200600 03005KT 2SM -SNRA OVC003
     FM201600 05007KT P6SM SCT015 BKN025=

USA.gov is the U.S. government's official web portal to all federal, state and local government web resources and services.